sensor_id;sensor_type;location;lat;lon;timestamp;P1;durP1;ratioP1;P2;durP2;ratioP2
22628;SDS011;11481;53.694;9.910;2023-11-18T00:01:41;10.95;;;6.68;;
22628;SDS011;11481;53.694;9.910;2023-11-18T00:04:08;9.48;;;6.40;;
22628;SDS011;11481;53.694;9.910;2023-11-18T00:06:42;11.30;;;7.50;;
22628;SDS011;11481;53.694;9.910;2023-11-18T00:09:13;11.00;;;6.50;;
22628;SDS011;11481;53.694;9.910;2023-11-18T00:11:40;12.75;;;6.57;;
22628;SDS011;11481;53.694;9.910;2023-11-18T00:14:10;11.50;;;6.53;;
22628;SDS011;11481;53.694;9.910;2023-11-18T00:16:37;9.68;;;5.43;;
22628;SDS011;11481;53.694;9.910;2023-11-18T00:19:05;9.88;;;6.43;;
22628;SDS011;11481;53.694;9.910;2023-11-18T00:21:32;10.55;;;6.63;;
22628;SDS011;11481;53.694;9.910;2023-11-18T00:23:58;12.23;;;6.65;;
22628;SDS011;11481;53.694;9.910;2023-11-18T00:26:25;12.57;;;6.53;;
22628;SDS011;11481;53.694;9.910;2023-11-18T00:28:52;11.27;;;6.43;;
22628;SDS011;11481;53.694;9.910;2023-11-18T00:31:19;9.80;;;6.10;;
22628;SDS011;11481;53.694;9.910;2023-11-18T00:33:45;10.63;;;6.18;;
22628;SDS011;11481;53.694;9.910;2023-11-18T00:36:12;8.63;;;5.75;;
22628;SDS011;11481;53.694;9.910;2023-11-18T00:38:39;8.82;;;5.85;;
22628;SDS011;11481;53.694;9.910;2023-11-18T00:41:06;11.48;;;6.05;;
22628;SDS011;11481;53.694;9.910;2023-11-18T00:43:33;10.73;;;6.72;;
22628;SDS011;11481;53.694;9.910;2023-11-18T00:45:59;11.35;;;6.45;;
22628;SDS011;11481;53.694;9.910;2023-11-18T00:48:27;10.27;;;5.25;;
22628;SDS011;11481;53.694;9.910;2023-11-18T00:50:54;10.90;;;6.28;;
22628;SDS011;11481;53.694;9.910;2023-11-18T00:53:22;13.30;;;5.82;;
22628;SDS011;11481;53.694;9.910;2023-11-18T00:55:49;9.40;;;6.35;;
22628;SDS011;11481;53.694;9.910;2023-11-18T00:58:15;9.82;;;6.00;;
22628;SDS011;11481;53.694;9.910;2023-11-18T01:00:42;9.98;;;5.82;;
22628;SDS011;11481;53.694;9.910;2023-11-18T01:03:08;8.70;;;6.18;;
22628;SDS011;11481;53.694;9.910;2023-11-18T01:05:36;8.82;;;5.55;;
22628;SDS011;11481;53.694;9.910;2023-11-18T01:08:03;9.13;;;5.60;;
22628;SDS011;11481;53.694;9.910;2023-11-18T01:10:31;12.77;;;6.15;;
22628;SDS011;11481;53.694;9.910;2023-11-18T01:12:58;10.32;;;6.18;;
22628;SDS011;11481;53.694;9.910;2023-11-18T01:15:25;9.65;;;5.72;;
22628;SDS011;11481;53.694;9.910;2023-11-18T01:17:51;11.98;;;6.53;;
22628;SDS011;11481;53.694;9.910;2023-11-18T01:20:18;9.73;;;5.68;;
22628;SDS011;11481;53.694;9.910;2023-11-18T01:22:48;11.77;;;6.43;;
22628;SDS011;11481;53.694;9.910;2023-11-18T01:25:15;9.43;;;5.75;;
22628;SDS011;11481;53.694;9.910;2023-11-18T01:27:45;9.75;;;6.05;;
22628;SDS011;11481;53.694;9.910;2023-11-18T01:30:15;9.13;;;5.70;;
22628;SDS011;11481;53.694;9.910;2023-11-18T01:32:41;11.68;;;6.95;;
22628;SDS011;11481;53.694;9.910;2023-11-18T01:35:09;8.50;;;5.68;;
22628;SDS011;11481;53.694;9.910;2023-11-18T01:37:39;8.52;;;5.57;;
22628;SDS011;11481;53.694;9.910;2023-11-18T01:40:06;9.45;;;5.78;;
22628;SDS011;11481;53.694;9.910;2023-11-18T01:42:34;9.13;;;5.90;;
22628;SDS011;11481;53.694;9.910;2023-11-18T01:45:01;9.02;;;5.88;;
22628;SDS011;11481;53.694;9.910;2023-11-18T01:47:31;10.35;;;6.30;;
22628;SDS011;11481;53.694;9.910;2023-11-18T01:49:59;10.35;;;7.07;;
22628;SDS011;11481;53.694;9.910;2023-11-18T01:52:27;12.27;;;6.68;;
22628;SDS011;11481;53.694;9.910;2023-11-18T01:54:56;11.90;;;7.18;;
22628;SDS011;11481;53.694;9.910;2023-11-18T01:57:23;11.85;;;7.13;;
22628;SDS011;11481;53.694;9.910;2023-11-18T01:59:53;12.73;;;6.80;;
22628;SDS011;11481;53.694;9.910;2023-11-18T02:02:20;20.55;;;6.82;;
22628;SDS011;11481;53.694;9.910;2023-11-18T02:04:47;10.80;;;6.45;;
22628;SDS011;11481;53.694;9.910;2023-11-18T02:07:14;11.77;;;6.45;;
22628;SDS011;11481;53.694;9.910;2023-11-18T02:09:41;12.45;;;7.18;;
22628;SDS011;11481;53.694;9.910;2023-11-18T02:12:19;14.18;;;6.72;;
22628;SDS011;11481;53.694;9.910;2023-11-18T02:14:53;11.63;;;7.55;;
22628;SDS011;11481;53.694;9.910;2023-11-18T02:17:21;11.80;;;7.30;;
22628;SDS011;11481;53.694;9.910;2023-11-18T02:19:52;13.85;;;8.05;;
22628;SDS011;11481;53.694;9.910;2023-11-18T02:22:22;12.25;;;8.05;;
22628;SDS011;11481;53.694;9.910;2023-11-18T02:24:49;12.98;;;8.00;;
22628;SDS011;11481;53.694;9.910;2023-11-18T02:27:16;12.20;;;7.43;;
22628;SDS011;11481;53.694;9.910;2023-11-18T02:29:46;13.85;;;8.40;;
22628;SDS011;11481;53.694;9.910;2023-11-18T02:32:17;14.07;;;7.40;;
22628;SDS011;11481;53.694;9.910;2023-11-18T02:34:57;13.20;;;8.43;;
22628;SDS011;11481;53.694;9.910;2023-11-18T02:37:28;13.65;;;7.75;;
22628;SDS011;11481;53.694;9.910;2023-11-18T02:40:03;12.25;;;7.15;;
22628;SDS011;11481;53.694;9.910;2023-11-18T02:42:40;12.77;;;8.35;;
22628;SDS011;11481;53.694;9.910;2023-11-18T02:45:11;12.60;;;7.07;;
22628;SDS011;11481;53.694;9.910;2023-11-18T02:47:46;9.90;;;6.53;;
22628;SDS011;11481;53.694;9.910;2023-11-18T02:50:14;12.82;;;7.20;;
22628;SDS011;11481;53.694;9.910;2023-11-18T02:52:41;12.18;;;7.22;;
22628;SDS011;11481;53.694;9.910;2023-11-18T02:55:08;12.45;;;6.78;;
22628;SDS011;11481;53.694;9.910;2023-11-18T02:57:35;10.95;;;6.13;;
22628;SDS011;11481;53.694;9.910;2023-11-18T03:00:05;10.38;;;6.38;;
22628;SDS011;11481;53.694;9.910;2023-11-18T03:02:37;12.65;;;7.68;;
22628;SDS011;11481;53.694;9.910;2023-11-18T03:05:06;10.18;;;6.70;;
22628;SDS011;11481;53.694;9.910;2023-11-18T03:07:33;9.57;;;5.72;;
22628;SDS011;11481;53.694;9.910;2023-11-18T03:10:00;10.63;;;6.15;;
22628;SDS011;11481;53.694;9.910;2023-11-18T03:12:27;16.48;;;6.68;;
22628;SDS011;11481;53.694;9.910;2023-11-18T03:14:54;8.57;;;6.20;;
22628;SDS011;11481;53.694;9.910;2023-11-18T03:17:21;11.50;;;6.47;;
22628;SDS011;11481;53.694;9.910;2023-11-18T03:19:48;8.95;;;5.70;;
22628;SDS011;11481;53.694;9.910;2023-11-18T03:22:16;14.60;;;6.28;;
22628;SDS011;11481;53.694;9.910;2023-11-18T03:24:43;11.30;;;6.32;;
22628;SDS011;11481;53.694;9.910;2023-11-18T03:27:10;11.35;;;5.93;;
22628;SDS011;11481;53.694;9.910;2023-11-18T03:29:36;14.82;;;5.65;;
22628;SDS011;11481;53.694;9.910;2023-11-18T03:32:03;10.48;;;6.65;;
22628;SDS011;11481;53.694;9.910;2023-11-18T03:34:31;10.45;;;6.38;;
22628;SDS011;11481;53.694;9.910;2023-11-18T03:36:58;10.25;;;6.20;;
22628;SDS011;11481;53.694;9.910;2023-11-18T03:39:25;9.98;;;5.95;;
22628;SDS011;11481;53.694;9.910;2023-11-18T03:41:53;10.00;;;5.53;;
22628;SDS011;11481;53.694;9.910;2023-11-18T03:44:20;11.77;;;6.57;;
22628;SDS011;11481;53.694;9.910;2023-11-18T03:46:47;10.50;;;6.20;;
22628;SDS011;11481;53.694;9.910;2023-11-18T03:49:13;12.48;;;7.25;;
22628;SDS011;11481;53.694;9.910;2023-11-18T03:51:40;14.40;;;6.35;;
22628;SDS011;11481;53.694;9.910;2023-11-18T03:54:06;11.70;;;5.97;;
22628;SDS011;11481;53.694;9.910;2023-11-18T03:56:36;9.88;;;5.95;;
22628;SDS011;11481;53.694;9.910;2023-11-18T03:59:03;13.15;;;7.05;;
22628;SDS011;11481;53.694;9.910;2023-11-18T04:01:30;11.20;;;6.40;;
22628;SDS011;11481;53.694;9.910;2023-11-18T04:03:59;11.43;;;6.40;;
22628;SDS011;11481;53.694;9.910;2023-11-18T04:06:25;13.93;;;7.18;;
22628;SDS011;11481;53.694;9.910;2023-11-18T04:08:52;12.25;;;6.78;;
22628;SDS011;11481;53.694;9.910;2023-11-18T04:11:19;10.32;;;6.90;;
22628;SDS011;11481;53.694;9.910;2023-11-18T04:13:46;11.45;;;7.10;;
22628;SDS011;11481;53.694;9.910;2023-11-18T04:16:13;9.93;;;6.10;;
22628;SDS011;11481;53.694;9.910;2023-11-18T04:18:45;10.00;;;6.32;;
22628;SDS011;11481;53.694;9.910;2023-11-18T04:21:12;10.73;;;6.25;;
22628;SDS011;11481;53.694;9.910;2023-11-18T04:23:40;12.18;;;6.72;;
22628;SDS011;11481;53.694;9.910;2023-11-18T04:26:08;11.45;;;5.65;;
22628;SDS011;11481;53.694;9.910;2023-11-18T04:28:36;9.70;;;6.57;;
22628;SDS011;11481;53.694;9.910;2023-11-18T04:31:03;8.65;;;5.88;;
22628;SDS011;11481;53.694;9.910;2023-11-18T04:33:31;10.48;;;6.70;;
22628;SDS011;11481;53.694;9.910;2023-11-18T04:35:58;9.75;;;5.50;;
22628;SDS011;11481;53.694;9.910;2023-11-18T04:38:25;10.55;;;6.32;;
22628;SDS011;11481;53.694;9.910;2023-11-18T04:40:52;11.88;;;6.35;;
22628;SDS011;11481;53.694;9.910;2023-11-18T04:43:23;12.85;;;6.70;;
22628;SDS011;11481;53.694;9.910;2023-11-18T04:46:05;10.40;;;6.80;;
22628;SDS011;11481;53.694;9.910;2023-11-18T04:48:32;11.32;;;6.50;;
22628;SDS011;11481;53.694;9.910;2023-11-18T04:51:00;9.70;;;5.63;;
22628;SDS011;11481;53.694;9.910;2023-11-18T04:53:27;9.32;;;5.85;;
22628;SDS011;11481;53.694;9.910;2023-11-18T04:55:56;9.90;;;6.15;;
22628;SDS011;11481;53.694;9.910;2023-11-18T04:58:22;11.25;;;6.97;;
22628;SDS011;11481;53.694;9.910;2023-11-18T05:00:50;12.35;;;7.53;;
22628;SDS011;11481;53.694;9.910;2023-11-18T05:03:16;14.23;;;7.22;;
22628;SDS011;11481;53.694;9.910;2023-11-18T05:05:43;11.73;;;7.13;;
22628;SDS011;11481;53.694;9.910;2023-11-18T05:08:20;9.20;;;6.35;;
22628;SDS011;11481;53.694;9.910;2023-11-18T05:10:48;9.57;;;6.63;;
22628;SDS011;11481;53.694;9.910;2023-11-18T05:13:16;9.50;;;6.68;;
22628;SDS011;11481;53.694;9.910;2023-11-18T05:15:43;11.50;;;7.10;;
22628;SDS011;11481;53.694;9.910;2023-11-18T05:18:13;9.65;;;6.10;;
22628;SDS011;11481;53.694;9.910;2023-11-18T05:20:42;11.73;;;6.97;;
22628;SDS011;11481;53.694;9.910;2023-11-18T05:23:09;11.93;;;6.10;;
22628;SDS011;11481;53.694;9.910;2023-11-18T05:25:39;10.73;;;6.93;;
22628;SDS011;11481;53.694;9.910;2023-11-18T05:28:07;13.07;;;7.10;;
22628;SDS011;11481;53.694;9.910;2023-11-18T05:30:35;10.60;;;6.57;;
22628;SDS011;11481;53.694;9.910;2023-11-18T05:33:02;13.63;;;7.03;;
22628;SDS011;11481;53.694;9.910;2023-11-18T05:35:33;11.60;;;6.80;;
22628;SDS011;11481;53.694;9.910;2023-11-18T05:38:01;13.95;;;7.75;;
22628;SDS011;11481;53.694;9.910;2023-11-18T05:40:32;10.88;;;6.85;;
22628;SDS011;11481;53.694;9.910;2023-11-18T05:43:02;12.70;;;7.80;;
22628;SDS011;11481;53.694;9.910;2023-11-18T05:45:32;12.70;;;7.82;;
22628;SDS011;11481;53.694;9.910;2023-11-18T05:48:18;13.57;;;7.38;;
22628;SDS011;11481;53.694;9.910;2023-11-18T05:50:45;13.63;;;6.85;;
22628;SDS011;11481;53.694;9.910;2023-11-18T05:53:14;11.25;;;6.85;;
22628;SDS011;11481;53.694;9.910;2023-11-18T05:55:41;9.60;;;6.57;;
22628;SDS011;11481;53.694;9.910;2023-11-18T05:58:07;11.27;;;6.60;;
22628;SDS011;11481;53.694;9.910;2023-11-18T06:00:35;12.75;;;6.68;;
22628;SDS011;11481;53.694;9.910;2023-11-18T06:03:07;12.45;;;7.15;;
22628;SDS011;11481;53.694;9.910;2023-11-18T06:05:33;11.38;;;7.22;;
22628;SDS011;11481;53.694;9.910;2023-11-18T06:08:01;11.48;;;7.47;;
22628;SDS011;11481;53.694;9.910;2023-11-18T06:10:28;14.60;;;8.30;;
22628;SDS011;11481;53.694;9.910;2023-11-18T06:12:57;11.57;;;7.30;;
22628;SDS011;11481;53.694;9.910;2023-11-18T06:15:24;10.68;;;7.25;;
22628;SDS011;11481;53.694;9.910;2023-11-18T06:17:51;12.00;;;7.28;;
22628;SDS011;11481;53.694;9.910;2023-11-18T06:20:18;13.55;;;7.40;;
22628;SDS011;11481;53.694;9.910;2023-11-18T06:22:46;15.15;;;7.97;;
22628;SDS011;11481;53.694;9.910;2023-11-18T06:25:12;12.38;;;7.40;;
22628;SDS011;11481;53.694;9.910;2023-11-18T06:27:39;12.93;;;7.35;;
22628;SDS011;11481;53.694;9.910;2023-11-18T06:30:06;11.43;;;7.35;;
22628;SDS011;11481;53.694;9.910;2023-11-18T06:32:33;13.48;;;7.03;;
22628;SDS011;11481;53.694;9.910;2023-11-18T06:35:00;11.07;;;6.95;;
22628;SDS011;11481;53.694;9.910;2023-11-18T06:37:31;9.57;;;6.38;;
22628;SDS011;11481;53.694;9.910;2023-11-18T06:39:59;10.90;;;7.03;;
22628;SDS011;11481;53.694;9.910;2023-11-18T06:42:25;13.25;;;7.28;;
22628;SDS011;11481;53.694;9.910;2023-11-18T06:44:52;10.50;;;6.97;;
22628;SDS011;11481;53.694;9.910;2023-11-18T06:47:19;13.63;;;7.20;;
22628;SDS011;11481;53.694;9.910;2023-11-18T06:49:46;11.90;;;7.05;;
22628;SDS011;11481;53.694;9.910;2023-11-18T06:52:18;11.18;;;7.03;;
22628;SDS011;11481;53.694;9.910;2023-11-18T06:54:45;11.05;;;6.80;;
22628;SDS011;11481;53.694;9.910;2023-11-18T06:57:11;14.15;;;7.00;;
22628;SDS011;11481;53.694;9.910;2023-11-18T06:59:38;11.23;;;6.72;;
22628;SDS011;11481;53.694;9.910;2023-11-18T07:02:05;12.40;;;7.07;;
22628;SDS011;11481;53.694;9.910;2023-11-18T07:04:32;10.60;;;6.32;;
22628;SDS011;11481;53.694;9.910;2023-11-18T07:06:59;11.88;;;7.68;;
22628;SDS011;11481;53.694;9.910;2023-11-18T07:09:27;11.18;;;7.10;;
22628;SDS011;11481;53.694;9.910;2023-11-18T07:11:54;15.05;;;6.68;;
22628;SDS011;11481;53.694;9.910;2023-11-18T07:14:22;10.07;;;5.85;;
22628;SDS011;11481;53.694;9.910;2023-11-18T07:16:48;10.65;;;6.88;;
22628;SDS011;11481;53.694;9.910;2023-11-18T07:19:15;12.30;;;7.07;;
22628;SDS011;11481;53.694;9.910;2023-11-18T07:21:48;11.18;;;7.05;;
22628;SDS011;11481;53.694;9.910;2023-11-18T07:24:16;12.65;;;7.45;;
22628;SDS011;11481;53.694;9.910;2023-11-18T07:26:44;12.70;;;7.28;;
22628;SDS011;11481;53.694;9.910;2023-11-18T07:29:11;14.52;;;7.65;;
22628;SDS011;11481;53.694;9.910;2023-11-18T07:31:38;14.63;;;8.05;;
22628;SDS011;11481;53.694;9.910;2023-11-18T07:34:05;12.38;;;7.25;;
22628;SDS011;11481;53.694;9.910;2023-11-18T07:36:32;10.27;;;6.82;;
22628;SDS011;11481;53.694;9.910;2023-11-18T07:38:59;12.68;;;7.53;;
22628;SDS011;11481;53.694;9.910;2023-11-18T07:41:32;12.13;;;7.15;;
22628;SDS011;11481;53.694;9.910;2023-11-18T07:43:59;12.45;;;7.00;;
22628;SDS011;11481;53.694;9.910;2023-11-18T07:46:27;14.68;;;8.20;;
22628;SDS011;11481;53.694;9.910;2023-11-18T07:48:56;14.55;;;8.35;;
22628;SDS011;11481;53.694;9.910;2023-11-18T07:51:24;10.90;;;7.30;;
22628;SDS011;11481;53.694;9.910;2023-11-18T07:53:51;12.40;;;7.50;;
22628;SDS011;11481;53.694;9.910;2023-11-18T07:56:18;15.27;;;9.15;;
22628;SDS011;11481;53.694;9.910;2023-11-18T07:58:48;14.07;;;8.65;;
22628;SDS011;11481;53.694;9.910;2023-11-18T08:01:17;13.88;;;7.63;;
22628;SDS011;11481;53.694;9.910;2023-11-18T08:03:44;12.63;;;7.45;;
22628;SDS011;11481;53.694;9.910;2023-11-18T08:06:11;12.30;;;7.40;;
22628;SDS011;11481;53.694;9.910;2023-11-18T08:08:38;12.65;;;7.43;;
22628;SDS011;11481;53.694;9.910;2023-11-18T08:11:05;16.95;;;8.23;;
22628;SDS011;11481;53.694;9.910;2023-11-18T08:13:32;14.00;;;7.40;;
22628;SDS011;11481;53.694;9.910;2023-11-18T08:15:59;13.73;;;7.25;;
22628;SDS011;11481;53.694;9.910;2023-11-18T08:18:26;17.88;;;7.63;;
22628;SDS011;11481;53.694;9.910;2023-11-18T08:20:54;13.07;;;7.15;;
22628;SDS011;11481;53.694;9.910;2023-11-18T08:23:21;14.00;;;7.45;;
22628;SDS011;11481;53.694;9.910;2023-11-18T08:25:47;12.65;;;7.28;;
22628;SDS011;11481;53.694;9.910;2023-11-18T08:28:16;12.55;;;6.60;;
22628;SDS011;11481;53.694;9.910;2023-11-18T08:30:43;11.07;;;6.80;;
22628;SDS011;11481;53.694;9.910;2023-11-18T08:33:10;14.18;;;7.05;;
22628;SDS011;11481;53.694;9.910;2023-11-18T08:35:36;11.70;;;7.68;;
22628;SDS011;11481;53.694;9.910;2023-11-18T08:38:04;12.68;;;7.65;;
22628;SDS011;11481;53.694;9.910;2023-11-18T08:40:34;17.27;;;8.70;;
22628;SDS011;11481;53.694;9.910;2023-11-18T08:43:02;16.20;;;7.93;;
22628;SDS011;11481;53.694;9.910;2023-11-18T08:45:31;13.10;;;7.55;;
22628;SDS011;11481;53.694;9.910;2023-11-18T08:47:59;16.70;;;9.48;;
22628;SDS011;11481;53.694;9.910;2023-11-18T08:50:35;14.30;;;8.23;;
22628;SDS011;11481;53.694;9.910;2023-11-18T08:53:02;14.30;;;8.27;;
22628;SDS011;11481;53.694;9.910;2023-11-18T08:55:36;15.30;;;7.82;;
22628;SDS011;11481;53.694;9.910;2023-11-18T08:58:10;15.50;;;8.50;;
22628;SDS011;11481;53.694;9.910;2023-11-18T09:00:55;15.40;;;8.25;;
22628;SDS011;11481;53.694;9.910;2023-11-18T09:03:40;20.40;;;9.32;;
22628;SDS011;11481;53.694;9.910;2023-11-18T09:06:14;15.65;;;8.70;;
22628;SDS011;11481;53.694;9.910;2023-11-18T09:08:45;18.55;;;9.65;;
22628;SDS011;11481;53.694;9.910;2023-11-18T09:11:19;16.23;;;9.50;;
22628;SDS011;11481;53.694;9.910;2023-11-18T09:13:48;17.05;;;10.15;;
22628;SDS011;11481;53.694;9.910;2023-11-18T09:16:20;15.68;;;9.55;;
22628;SDS011;11481;53.694;9.910;2023-11-18T09:18:49;17.05;;;10.10;;
22628;SDS011;11481;53.694;9.910;2023-11-18T09:21:17;18.20;;;9.25;;
22628;SDS011;11481;53.694;9.910;2023-11-18T09:23:51;13.18;;;8.55;;
22628;SDS011;11481;53.694;9.910;2023-11-18T09:26:18;12.85;;;8.38;;
22628;SDS011;11481;53.694;9.910;2023-11-18T09:28:45;17.02;;;8.32;;
22628;SDS011;11481;53.694;9.910;2023-11-18T09:31:12;18.30;;;8.70;;
22628;SDS011;11481;53.694;9.910;2023-11-18T09:33:39;20.55;;;8.35;;
22628;SDS011;11481;53.694;9.910;2023-11-18T09:36:11;14.60;;;7.70;;
22628;SDS011;11481;53.694;9.910;2023-11-18T09:38:42;13.07;;;8.00;;
22628;SDS011;11481;53.694;9.910;2023-11-18T09:41:12;12.88;;;6.75;;
22628;SDS011;11481;53.694;9.910;2023-11-18T09:43:40;11.80;;;6.68;;
22628;SDS011;11481;53.694;9.910;2023-11-18T09:46:14;13.73;;;5.97;;
22628;SDS011;11481;53.694;9.910;2023-11-18T09:48:49;10.80;;;5.97;;
22628;SDS011;11481;53.694;9.910;2023-11-18T09:51:20;9.85;;;5.32;;
22628;SDS011;11481;53.694;9.910;2023-11-18T09:53:51;10.35;;;5.28;;
22628;SDS011;11481;53.694;9.910;2023-11-18T09:56:31;6.53;;;4.45;;
22628;SDS011;11481;53.694;9.910;2023-11-18T09:59:18;6.47;;;3.95;;
22628;SDS011;11481;53.694;9.910;2023-11-18T10:01:56;7.03;;;3.20;;
22628;SDS011;11481;53.694;9.910;2023-11-18T10:04:24;6.00;;;3.33;;
22628;SDS011;11481;53.694;9.910;2023-11-18T10:06:54;5.72;;;3.28;;
22628;SDS011;11481;53.694;9.910;2023-11-18T10:09:28;6.70;;;3.33;;
22628;SDS011;11481;53.694;9.910;2023-11-18T10:12:03;6.55;;;3.20;;
22628;SDS011;11481;53.694;9.910;2023-11-18T10:14:36;7.28;;;3.78;;
22628;SDS011;11481;53.694;9.910;2023-11-18T10:17:07;4.85;;;3.08;;
22628;SDS011;11481;53.694;9.910;2023-11-18T10:19:53;6.00;;;2.83;;
22628;SDS011;11481;53.694;9.910;2023-11-18T10:22:24;4.57;;;2.92;;
22628;SDS011;11481;53.694;9.910;2023-11-18T10:24:56;5.40;;;2.60;;
22628;SDS011;11481;53.694;9.910;2023-11-18T10:27:23;5.07;;;2.85;;
22628;SDS011;11481;53.694;9.910;2023-11-18T10:29:55;5.30;;;2.90;;
22628;SDS011;11481;53.694;9.910;2023-11-18T10:32:28;8.30;;;3.20;;
22628;SDS011;11481;53.694;9.910;2023-11-18T10:34:58;5.47;;;2.97;;
22628;SDS011;11481;53.694;9.910;2023-11-18T10:37:25;5.50;;;2.78;;
22628;SDS011;11481;53.694;9.910;2023-11-18T10:39:56;4.53;;;2.40;;
22628;SDS011;11481;53.694;9.910;2023-11-18T10:42:30;5.68;;;3.05;;
22628;SDS011;11481;53.694;9.910;2023-11-18T10:44:59;3.33;;;2.47;;
22628;SDS011;11481;53.694;9.910;2023-11-18T10:47:33;3.45;;;2.38;;
22628;SDS011;11481;53.694;9.910;2023-11-18T10:50:02;6.10;;;2.90;;
22628;SDS011;11481;53.694;9.910;2023-11-18T10:52:29;5.57;;;2.90;;
22628;SDS011;11481;53.694;9.910;2023-11-18T10:55:01;4.93;;;2.65;;
22628;SDS011;11481;53.694;9.910;2023-11-18T10:57:37;5.50;;;2.97;;
22628;SDS011;11481;53.694;9.910;2023-11-18T11:00:05;5.50;;;3.00;;
22628;SDS011;11481;53.694;9.910;2023-11-18T11:02:40;4.82;;;2.88;;
22628;SDS011;11481;53.694;9.910;2023-11-18T11:05:08;5.65;;;3.25;;
22628;SDS011;11481;53.694;9.910;2023-11-18T11:07:46;4.07;;;2.53;;
22628;SDS011;11481;53.694;9.910;2023-11-18T11:10:15;4.95;;;2.67;;
22628;SDS011;11481;53.694;9.910;2023-11-18T11:13:00;5.10;;;2.78;;
22628;SDS011;11481;53.694;9.910;2023-11-18T11:15:32;4.60;;;3.15;;
22628;SDS011;11481;53.694;9.910;2023-11-18T11:18:14;4.30;;;2.63;;
22628;SDS011;11481;53.694;9.910;2023-11-18T11:23:47;5.25;;;3.15;;
22628;SDS011;11481;53.694;9.910;2023-11-18T11:26:50;6.80;;;2.90;;
22628;SDS011;11481;53.694;9.910;2023-11-18T11:29:55;5.93;;;3.40;;
22628;SDS011;11481;53.694;9.910;2023-11-18T11:32:45;5.63;;;3.20;;
22628;SDS011;11481;53.694;9.910;2023-11-18T11:35:19;5.50;;;2.90;;
22628;SDS011;11481;53.694;9.910;2023-11-18T11:37:51;5.18;;;3.00;;
22628;SDS011;11481;53.694;9.910;2023-11-18T11:40:20;5.82;;;3.30;;
22628;SDS011;11481;53.694;9.910;2023-11-18T11:42:49;5.45;;;3.00;;
22628;SDS011;11481;53.694;9.910;2023-11-18T11:45:23;6.15;;;2.33;;
22628;SDS011;11481;53.694;9.910;2023-11-18T11:47:55;4.47;;;2.10;;
22628;SDS011;11481;53.694;9.910;2023-11-18T11:53:19;4.70;;;2.13;;
22628;SDS011;11481;53.694;9.910;2023-11-18T11:55:51;4.35;;;2.00;;
22628;SDS011;11481;53.694;9.910;2023-11-18T11:58:29;3.88;;;2.00;;
22628;SDS011;11481;53.694;9.910;2023-11-18T12:01:15;5.18;;;2.45;;
22628;SDS011;11481;53.694;9.910;2023-11-18T12:03:50;3.88;;;2.30;;
22628;SDS011;11481;53.694;9.910;2023-11-18T12:06:24;5.18;;;2.42;;
22628;SDS011;11481;53.694;9.910;2023-11-18T12:08:52;3.70;;;2.53;;
22628;SDS011;11481;53.694;9.910;2023-11-18T12:11:21;3.97;;;2.40;;
22628;SDS011;11481;53.694;9.910;2023-11-18T12:19:41;7.25;;;3.10;;
22628;SDS011;11481;53.694;9.910;2023-11-18T12:22:22;4.55;;;2.47;;
22628;SDS011;11481;53.694;9.910;2023-11-18T12:27:45;9.02;;;3.53;;
22628;SDS011;11481;53.694;9.910;2023-11-18T12:33:05;8.35;;;3.90;;
22628;SDS011;11481;53.694;9.910;2023-11-18T12:41:06;8.48;;;4.30;;
22628;SDS011;11481;53.694;9.910;2023-11-18T12:43:47;8.55;;;4.68;;
22628;SDS011;11481;53.694;9.910;2023-11-18T12:46:41;8.48;;;4.85;;
22628;SDS011;11481;53.694;9.910;2023-11-18T12:49:22;9.00;;;4.97;;
22628;SDS011;11481;53.694;9.910;2023-11-18T12:51:50;9.38;;;4.68;;
22628;SDS011;11481;53.694;9.910;2023-11-18T12:54:19;13.52;;;5.20;;
22628;SDS011;11481;53.694;9.910;2023-11-18T12:56:50;8.95;;;4.57;;
22628;SDS011;11481;53.694;9.910;2023-11-18T12:59:19;11.05;;;4.55;;
22628;SDS011;11481;53.694;9.910;2023-11-18T13:01:50;8.90;;;4.80;;
22628;SDS011;11481;53.694;9.910;2023-11-18T13:04:23;8.48;;;4.55;;
22628;SDS011;11481;53.694;9.910;2023-11-18T13:06:51;8.02;;;4.95;;
22628;SDS011;11481;53.694;9.910;2023-11-18T13:09:19;9.15;;;5.43;;
22628;SDS011;11481;53.694;9.910;2023-11-18T13:11:58;9.38;;;4.80;;
22628;SDS011;11481;53.694;9.910;2023-11-18T13:14:31;9.15;;;5.20;;
22628;SDS011;11481;53.694;9.910;2023-11-18T13:17:08;8.30;;;4.93;;
22628;SDS011;11481;53.694;9.910;2023-11-18T13:19:38;10.15;;;4.32;;
22628;SDS011;11481;53.694;9.910;2023-11-18T13:22:06;8.80;;;3.85;;
22628;SDS011;11481;53.694;9.910;2023-11-18T13:24:38;7.53;;;3.55;;
22628;SDS011;11481;53.694;9.910;2023-11-18T13:27:10;6.85;;;4.07;;
22628;SDS011;11481;53.694;9.910;2023-11-18T13:29:39;6.93;;;4.13;;
22628;SDS011;11481;53.694;9.910;2023-11-18T13:32:11;6.72;;;4.15;;
22628;SDS011;11481;53.694;9.910;2023-11-18T13:34:39;10.70;;;7.00;;
22628;SDS011;11481;53.694;9.910;2023-11-18T13:37:08;6.38;;;3.78;;
22628;SDS011;11481;53.694;9.910;2023-11-18T13:39:38;7.03;;;3.60;;
22628;SDS011;11481;53.694;9.910;2023-11-18T13:42:17;7.10;;;4.13;;
22628;SDS011;11481;53.694;9.910;2023-11-18T13:45:02;7.80;;;4.22;;
22628;SDS011;11481;53.694;9.910;2023-11-18T13:47:34;7.70;;;4.47;;
22628;SDS011;11481;53.694;9.910;2023-11-18T13:50:06;6.80;;;3.42;;
22628;SDS011;11481;53.694;9.910;2023-11-18T13:52:35;8.45;;;4.25;;
22628;SDS011;11481;53.694;9.910;2023-11-18T13:55:02;6.13;;;3.65;;
22628;SDS011;11481;53.694;9.910;2023-11-18T13:57:34;8.38;;;3.95;;
22628;SDS011;11481;53.694;9.910;2023-11-18T14:00:01;6.57;;;3.85;;
22628;SDS011;11481;53.694;9.910;2023-11-18T14:02:32;6.97;;;4.05;;
22628;SDS011;11481;53.694;9.910;2023-11-18T14:05:02;5.63;;;4.03;;
22628;SDS011;11481;53.694;9.910;2023-11-18T14:07:31;6.10;;;3.85;;
22628;SDS011;11481;53.694;9.910;2023-11-18T14:10:04;7.85;;;4.25;;
22628;SDS011;11481;53.694;9.910;2023-11-18T14:12:34;8.18;;;4.43;;
22628;SDS011;11481;53.694;9.910;2023-11-18T14:15:01;7.68;;;4.32;;
22628;SDS011;11481;53.694;9.910;2023-11-18T14:17:29;8.38;;;4.40;;
22628;SDS011;11481;53.694;9.910;2023-11-18T14:19:56;8.43;;;4.00;;
22628;SDS011;11481;53.694;9.910;2023-11-18T14:22:25;7.80;;;4.30;;
22628;SDS011;11481;53.694;9.910;2023-11-18T14:24:52;8.27;;;4.65;;
22628;SDS011;11481;53.694;9.910;2023-11-18T14:27:20;9.52;;;4.32;;
22628;SDS011;11481;53.694;9.910;2023-11-18T14:29:46;7.40;;;4.18;;
22628;SDS011;11481;53.694;9.910;2023-11-18T14:32:13;7.43;;;4.35;;
22628;SDS011;11481;53.694;9.910;2023-11-18T14:34:40;7.85;;;4.28;;
22628;SDS011;11481;53.694;9.910;2023-11-18T14:37:08;8.23;;;3.92;;
22628;SDS011;11481;53.694;9.910;2023-11-18T14:39:34;6.78;;;4.10;;
22628;SDS011;11481;53.694;9.910;2023-11-18T14:42:03;8.65;;;4.28;;
22628;SDS011;11481;53.694;9.910;2023-11-18T14:44:30;6.40;;;4.00;;
22628;SDS011;11481;53.694;9.910;2023-11-18T14:46:57;10.70;;;4.05;;
22628;SDS011;11481;53.694;9.910;2023-11-18T14:49:25;7.85;;;3.72;;
22628;SDS011;11481;53.694;9.910;2023-11-18T14:51:51;8.75;;;4.45;;
22628;SDS011;11481;53.694;9.910;2023-11-18T14:54:18;7.53;;;4.03;;
22628;SDS011;11481;53.694;9.910;2023-11-18T14:56:47;6.43;;;4.20;;
22628;SDS011;11481;53.694;9.910;2023-11-18T14:59:15;8.25;;;4.50;;
22628;SDS011;11481;53.694;9.910;2023-11-18T15:01:42;8.43;;;4.40;;
22628;SDS011;11481;53.694;9.910;2023-11-18T15:04:10;10.25;;;4.88;;
22628;SDS011;11481;53.694;9.910;2023-11-18T15:06:38;9.18;;;4.45;;
22628;SDS011;11481;53.694;9.910;2023-11-18T15:09:05;7.32;;;4.13;;
22628;SDS011;11481;53.694;9.910;2023-11-18T15:11:33;9.60;;;4.65;;
22628;SDS011;11481;53.694;9.910;2023-11-18T15:14:00;6.78;;;3.70;;
22628;SDS011;11481;53.694;9.910;2023-11-18T15:16:27;7.90;;;4.43;;
22628;SDS011;11481;53.694;9.910;2023-11-18T15:18:54;6.32;;;3.88;;